sensor_id;sensor_type;location;lat;lon;timestamp;P1;durP1;ratioP1;P2;durP2;ratioP2
6566;SDS011;3317;43.994;22.878;2023-02-24T00:00:59;15.27;;;8.60;;
6566;SDS011;3317;43.994;22.878;2023-02-24T00:03:34;13.03;;;7.83;;
6566;SDS011;3317;43.994;22.878;2023-02-24T00:06:02;15.40;;;8.67;;
6566;SDS011;3317;43.994;22.878;2023-02-24T00:08:36;13.53;;;8.70;;
6566;SDS011;3317;43.994;22.878;2023-02-24T00:11:07;15.60;;;8.83;;
6566;SDS011;3317;43.994;22.878;2023-02-24T00:13:37;19.97;;;8.20;;
6566;SDS011;3317;43.994;22.878;2023-02-24T00:16:05;17.30;;;8.87;;
6566;SDS011;3317;43.994;22.878;2023-02-24T00:18:33;17.00;;;8.47;;
6566;SDS011;3317;43.994;22.878;2023-02-24T00:21:02;15.53;;;8.80;;
6566;SDS011;3317;43.994;22.878;2023-02-24T00:23:35;13.93;;;8.60;;
6566;SDS011;3317;43.994;22.878;2023-02-24T00:26:04;15.00;;;8.90;;
6566;SDS011;3317;43.994;22.878;2023-02-24T00:28:32;19.80;;;8.47;;
6566;SDS011;3317;43.994;22.878;2023-02-24T00:31:03;14.50;;;8.43;;
6566;SDS011;3317;43.994;22.878;2023-02-24T00:33:31;13.90;;;8.07;;
6566;SDS011;3317;43.994;22.878;2023-02-24T00:36:07;13.30;;;8.47;;
6566;SDS011;3317;43.994;22.878;2023-02-24T00:38:36;13.63;;;8.60;;
6566;SDS011;3317;43.994;22.878;2023-02-24T00:41:08;13.20;;;8.47;;
6566;SDS011;3317;43.994;22.878;2023-02-24T00:43:38;15.27;;;9.27;;
6566;SDS011;3317;43.994;22.878;2023-02-24T00:46:05;14.60;;;8.77;;
6566;SDS011;3317;43.994;22.878;2023-02-24T00:48:36;12.73;;;8.50;;
6566;SDS011;3317;43.994;22.878;2023-02-24T00:51:07;14.13;;;8.60;;
6566;SDS011;3317;43.994;22.878;2023-02-24T00:53:35;13.37;;;8.50;;
6566;SDS011;3317;43.994;22.878;2023-02-24T00:56:04;12.93;;;8.77;;
6566;SDS011;3317;43.994;22.878;2023-02-24T00:58:33;14.33;;;9.00;;
6566;SDS011;3317;43.994;22.878;2023-02-24T01:01:01;20.20;;;10.07;;
6566;SDS011;3317;43.994;22.878;2023-02-24T01:03:29;20.73;;;9.67;;
6566;SDS011;3317;43.994;22.878;2023-02-24T01:05:59;18.73;;;10.30;;
6566;SDS011;3317;43.994;22.878;2023-02-24T01:08:28;13.23;;;8.90;;
6566;SDS011;3317;43.994;22.878;2023-02-24T01:10:56;13.53;;;8.60;;
6566;SDS011;3317;43.994;22.878;2023-02-24T01:13:37;14.17;;;8.80;;
6566;SDS011;3317;43.994;22.878;2023-02-24T01:16:04;18.70;;;9.80;;
6566;SDS011;3317;43.994;22.878;2023-02-24T01:18:31;14.97;;;9.43;;
6566;SDS011;3317;43.994;22.878;2023-02-24T01:20:59;14.50;;;8.97;;
6566;SDS011;3317;43.994;22.878;2023-02-24T01:23:26;15.53;;;9.77;;
6566;SDS011;3317;43.994;22.878;2023-02-24T01:25:54;19.40;;;9.90;;
6566;SDS011;3317;43.994;22.878;2023-02-24T01:28:24;14.20;;;9.30;;
6566;SDS011;3317;43.994;22.878;2023-02-24T01:30:51;13.57;;;8.50;;
6566;SDS011;3317;43.994;22.878;2023-02-24T01:33:19;15.27;;;9.17;;
6566;SDS011;3317;43.994;22.878;2023-02-24T01:35:46;17.80;;;9.00;;
6566;SDS011;3317;43.994;22.878;2023-02-24T01:38:13;15.17;;;9.00;;
6566;SDS011;3317;43.994;22.878;2023-02-24T01:40:40;16.07;;;9.23;;
6566;SDS011;3317;43.994;22.878;2023-02-24T01:43:09;14.77;;;9.10;;
6566;SDS011;3317;43.994;22.878;2023-02-24T01:45:37;17.73;;;9.70;;
6566;SDS011;3317;43.994;22.878;2023-02-24T01:48:05;18.43;;;8.93;;
6566;SDS011;3317;43.994;22.878;2023-02-24T01:50:35;14.17;;;8.60;;
6566;SDS011;3317;43.994;22.878;2023-02-24T01:53:04;15.23;;;8.60;;
6566;SDS011;3317;43.994;22.878;2023-02-24T01:55:33;18.83;;;8.40;;
6566;SDS011;3317;43.994;22.878;2023-02-24T01:58:04;16.13;;;8.73;;
6566;SDS011;3317;43.994;22.878;2023-02-24T02:00:37;15.27;;;9.07;;
6566;SDS011;3317;43.994;22.878;2023-02-24T02:03:14;15.57;;;9.43;;
6566;SDS011;3317;43.994;22.878;2023-02-24T02:05:49;14.10;;;8.80;;
6566;SDS011;3317;43.994;22.878;2023-02-24T02:08:18;15.00;;;8.77;;
6566;SDS011;3317;43.994;22.878;2023-02-24T02:10:47;14.30;;;8.67;;
6566;SDS011;3317;43.994;22.878;2023-02-24T02:13:17;15.20;;;9.10;;
6566;SDS011;3317;43.994;22.878;2023-02-24T02:15:48;14.60;;;9.30;;
6566;SDS011;3317;43.994;22.878;2023-02-24T02:18:28;13.50;;;8.77;;
6566;SDS011;3317;43.994;22.878;2023-02-24T02:21:13;14.20;;;8.43;;
6566;SDS011;3317;43.994;22.878;2023-02-24T02:27:00;12.77;;;8.60;;
6566;SDS011;3317;43.994;22.878;2023-02-24T02:29:44;22.80;;;8.80;;
6566;SDS011;3317;43.994;22.878;2023-02-24T02:35:31;14.60;;;9.20;;
6566;SDS011;3317;43.994;22.878;2023-02-24T02:38:06;21.77;;;9.47;;
6566;SDS011;3317;43.994;22.878;2023-02-24T02:40:41;12.33;;;8.80;;
6566;SDS011;3317;43.994;22.878;2023-02-24T02:43:14;17.23;;;10.00;;
6566;SDS011;3317;43.994;22.878;2023-02-24T02:45:50;16.77;;;9.23;;
6566;SDS011;3317;43.994;22.878;2023-02-24T02:48:23;13.27;;;8.77;;
6566;SDS011;3317;43.994;22.878;2023-02-24T02:50:57;21.43;;;10.70;;
6566;SDS011;3317;43.994;22.878;2023-02-24T02:53:31;15.40;;;9.17;;
6566;SDS011;3317;43.994;22.878;2023-02-24T02:56:05;19.93;;;11.00;;
6566;SDS011;3317;43.994;22.878;2023-02-24T02:58:37;16.13;;;10.70;;
6566;SDS011;3317;43.994;22.878;2023-02-24T03:01:07;16.03;;;10.80;;
6566;SDS011;3317;43.994;22.878;2023-02-24T03:03:37;16.77;;;10.60;;
6566;SDS011;3317;43.994;22.878;2023-02-24T03:06:11;16.30;;;10.10;;
6566;SDS011;3317;43.994;22.878;2023-02-24T03:08:42;17.83;;;9.80;;
6566;SDS011;3317;43.994;22.878;2023-02-24T03:11:16;19.73;;;10.43;;
6566;SDS011;3317;43.994;22.878;2023-02-24T03:13:45;20.77;;;10.60;;
6566;SDS011;3317;43.994;22.878;2023-02-24T03:16:16;16.60;;;10.30;;
6566;SDS011;3317;43.994;22.878;2023-02-24T03:18:49;16.83;;;10.20;;
6566;SDS011;3317;43.994;22.878;2023-02-24T03:21:23;17.60;;;10.43;;
6566;SDS011;3317;43.994;22.878;2023-02-24T03:23:55;18.33;;;9.20;;
6566;SDS011;3317;43.994;22.878;2023-02-24T03:26:23;18.17;;;10.57;;
6566;SDS011;3317;43.994;22.878;2023-02-24T03:28:56;21.23;;;10.33;;
6566;SDS011;3317;43.994;22.878;2023-02-24T03:31:30;14.37;;;9.40;;
6566;SDS011;3317;43.994;22.878;2023-02-24T03:34:03;15.60;;;9.80;;
6566;SDS011;3317;43.994;22.878;2023-02-24T03:36:37;16.20;;;9.70;;
6566;SDS011;3317;43.994;22.878;2023-02-24T03:39:04;15.83;;;9.50;;
6566;SDS011;3317;43.994;22.878;2023-02-24T03:41:36;17.90;;;10.17;;
6566;SDS011;3317;43.994;22.878;2023-02-24T03:44:11;16.60;;;10.60;;
6566;SDS011;3317;43.994;22.878;2023-02-24T03:46:39;16.97;;;9.30;;
6566;SDS011;3317;43.994;22.878;2023-02-24T03:49:07;14.90;;;9.93;;
6566;SDS011;3317;43.994;22.878;2023-02-24T03:51:42;17.03;;;10.37;;
6566;SDS011;3317;43.994;22.878;2023-02-24T03:54:17;17.00;;;9.90;;
6566;SDS011;3317;43.994;22.878;2023-02-24T03:56:57;16.80;;;10.17;;
6566;SDS011;3317;43.994;22.878;2023-02-24T03:59:34;16.20;;;10.23;;
6566;SDS011;3317;43.994;22.878;2023-02-24T04:02:12;18.57;;;10.47;;
6566;SDS011;3317;43.994;22.878;2023-02-24T04:04:44;15.77;;;10.17;;
6566;SDS011;3317;43.994;22.878;2023-02-24T04:07:19;22.83;;;10.70;;
6566;SDS011;3317;43.994;22.878;2023-02-24T04:09:56;20.50;;;10.70;;
6566;SDS011;3317;43.994;22.878;2023-02-24T04:12:34;16.77;;;10.37;;
6566;SDS011;3317;43.994;22.878;2023-02-24T04:15:09;19.50;;;10.70;;
6566;SDS011;3317;43.994;22.878;2023-02-24T04:17:41;17.60;;;10.50;;
6566;SDS011;3317;43.994;22.878;2023-02-24T04:20:11;18.70;;;11.00;;
6566;SDS011;3317;43.994;22.878;2023-02-24T04:22:42;17.87;;;10.50;;
6566;SDS011;3317;43.994;22.878;2023-02-24T04:25:13;21.90;;;10.90;;
6566;SDS011;3317;43.994;22.878;2023-02-24T04:27:43;20.70;;;10.87;;
6566;SDS011;3317;43.994;22.878;2023-02-24T04:30:13;18.13;;;10.80;;
6566;SDS011;3317;43.994;22.878;2023-02-24T04:32:40;16.90;;;10.17;;
6566;SDS011;3317;43.994;22.878;2023-02-24T04:35:09;13.60;;;9.10;;
6566;SDS011;3317;43.994;22.878;2023-02-24T04:37:39;17.53;;;10.40;;
6566;SDS011;3317;43.994;22.878;2023-02-24T04:40:12;18.20;;;10.03;;
6566;SDS011;3317;43.994;22.878;2023-02-24T04:42:42;18.27;;;11.03;;
6566;SDS011;3317;43.994;22.878;2023-02-24T04:45:13;18.40;;;11.50;;
6566;SDS011;3317;43.994;22.878;2023-02-24T04:47:42;17.00;;;11.10;;
6566;SDS011;3317;43.994;22.878;2023-02-24T04:50:13;15.73;;;10.30;;
6566;SDS011;3317;43.994;22.878;2023-02-24T04:52:47;20.33;;;11.90;;
6566;SDS011;3317;43.994;22.878;2023-02-24T04:55:20;17.67;;;11.63;;
6566;SDS011;3317;43.994;22.878;2023-02-24T04:57:51;23.37;;;12.53;;
6566;SDS011;3317;43.994;22.878;2023-02-24T05:00:18;21.73;;;11.70;;
6566;SDS011;3317;43.994;22.878;2023-02-24T05:02:47;18.90;;;11.53;;
6566;SDS011;3317;43.994;22.878;2023-02-24T05:05:15;17.20;;;11.20;;
6566;SDS011;3317;43.994;22.878;2023-02-24T05:07:49;17.70;;;10.70;;
6566;SDS011;3317;43.994;22.878;2023-02-24T05:10:17;20.10;;;12.17;;
6566;SDS011;3317;43.994;22.878;2023-02-24T05:12:45;19.03;;;11.90;;
6566;SDS011;3317;43.994;22.878;2023-02-24T05:15:12;19.17;;;11.60;;
6566;SDS011;3317;43.994;22.878;2023-02-24T05:17:39;26.57;;;14.80;;
6566;SDS011;3317;43.994;22.878;2023-02-24T05:20:07;24.93;;;13.67;;
6566;SDS011;3317;43.994;22.878;2023-02-24T05:22:52;17.20;;;11.60;;
6566;SDS011;3317;43.994;22.878;2023-02-24T05:25:19;20.07;;;13.03;;
6566;SDS011;3317;43.994;22.878;2023-02-24T05:27:48;20.83;;;12.37;;
6566;SDS011;3317;43.994;22.878;2023-02-24T05:30:15;18.10;;;11.00;;
6566;SDS011;3317;43.994;22.878;2023-02-24T05:32:43;21.33;;;11.77;;
6566;SDS011;3317;43.994;22.878;2023-02-24T05:35:10;24.17;;;13.17;;
6566;SDS011;3317;43.994;22.878;2023-02-24T05:37:37;20.40;;;13.17;;
6566;SDS011;3317;43.994;22.878;2023-02-24T05:40:07;23.10;;;14.20;;
6566;SDS011;3317;43.994;22.878;2023-02-24T05:42:38;23.87;;;14.37;;
6566;SDS011;3317;43.994;22.878;2023-02-24T05:45:08;22.80;;;13.23;;
6566;SDS011;3317;43.994;22.878;2023-02-24T05:47:36;19.17;;;12.30;;
6566;SDS011;3317;43.994;22.878;2023-02-24T05:50:04;28.23;;;13.43;;
6566;SDS011;3317;43.994;22.878;2023-02-24T05:52:33;26.50;;;14.40;;
6566;SDS011;3317;43.994;22.878;2023-02-24T05:55:02;27.57;;;14.27;;
6566;SDS011;3317;43.994;22.878;2023-02-24T05:57:31;20.67;;;13.03;;
6566;SDS011;3317;43.994;22.878;2023-02-24T06:00:19;24.50;;;12.93;;
6566;SDS011;3317;43.994;22.878;2023-02-24T06:02:50;18.20;;;10.90;;
6566;SDS011;3317;43.994;22.878;2023-02-24T06:05:17;17.57;;;10.90;;
6566;SDS011;3317;43.994;22.878;2023-02-24T06:07:54;20.23;;;11.90;;
6566;SDS011;3317;43.994;22.878;2023-02-24T06:10:29;22.00;;;11.63;;
6566;SDS011;3317;43.994;22.878;2023-02-24T06:12:58;16.27;;;11.00;;
6566;SDS011;3317;43.994;22.878;2023-02-24T06:15:28;18.90;;;10.80;;
6566;SDS011;3317;43.994;22.878;2023-02-24T06:17:56;18.33;;;11.67;;
6566;SDS011;3317;43.994;22.878;2023-02-24T06:20:25;17.10;;;10.83;;
6566;SDS011;3317;43.994;22.878;2023-02-24T06:22:53;20.73;;;12.00;;
6566;SDS011;3317;43.994;22.878;2023-02-24T06:25:22;17.57;;;10.70;;
6566;SDS011;3317;43.994;22.878;2023-02-24T06:27:50;26.17;;;11.00;;
6566;SDS011;3317;43.994;22.878;2023-02-24T06:30:20;21.67;;;12.10;;
6566;SDS011;3317;43.994;22.878;2023-02-24T06:32:50;21.67;;;11.60;;
6566;SDS011;3317;43.994;22.878;2023-02-24T06:35:18;22.07;;;12.17;;
6566;SDS011;3317;43.994;22.878;2023-02-24T06:37:47;17.87;;;9.80;;
6566;SDS011;3317;43.994;22.878;2023-02-24T06:40:14;18.20;;;11.17;;
6566;SDS011;3317;43.994;22.878;2023-02-24T06:42:45;19.73;;;11.87;;
6566;SDS011;3317;43.994;22.878;2023-02-24T06:45:13;20.80;;;11.90;;
6566;SDS011;3317;43.994;22.878;2023-02-24T06:47:40;19.37;;;11.53;;
6566;SDS011;3317;43.994;22.878;2023-02-24T06:50:10;22.43;;;12.93;;
6566;SDS011;3317;43.994;22.878;2023-02-24T06:52:37;17.57;;;11.57;;
6566;SDS011;3317;43.994;22.878;2023-02-24T06:55:05;16.23;;;10.37;;
6566;SDS011;3317;43.994;22.878;2023-02-24T06:57:49;22.90;;;11.67;;
6566;SDS011;3317;43.994;22.878;2023-02-24T07:00:21;18.00;;;11.60;;
6566;SDS011;3317;43.994;22.878;2023-02-24T07:03:01;18.37;;;10.00;;
6566;SDS011;3317;43.994;22.878;2023-02-24T07:05:40;13.77;;;9.00;;
6566;SDS011;3317;43.994;22.878;2023-02-24T07:08:14;18.23;;;10.60;;
6566;SDS011;3317;43.994;22.878;2023-02-24T07:10:42;24.60;;;14.30;;
6566;SDS011;3317;43.994;22.878;2023-02-24T07:13:10;22.40;;;14.03;;
6566;SDS011;3317;43.994;22.878;2023-02-24T07:15:40;26.93;;;14.97;;
6566;SDS011;3317;43.994;22.878;2023-02-24T07:18:13;20.07;;;11.50;;
6566;SDS011;3317;43.994;22.878;2023-02-24T07:20:42;17.50;;;10.77;;
6566;SDS011;3317;43.994;22.878;2023-02-24T07:23:10;19.63;;;12.10;;
6566;SDS011;3317;43.994;22.878;2023-02-24T07:25:37;21.93;;;12.03;;
6566;SDS011;3317;43.994;22.878;2023-02-24T07:28:07;20.50;;;13.17;;
6566;SDS011;3317;43.994;22.878;2023-02-24T07:30:35;19.93;;;11.50;;
6566;SDS011;3317;43.994;22.878;2023-02-24T07:33:03;25.00;;;13.07;;
6566;SDS011;3317;43.994;22.878;2023-02-24T07:35:31;25.73;;;13.77;;
6566;SDS011;3317;43.994;22.878;2023-02-24T07:38:01;15.17;;;9.73;;
6566;SDS011;3317;43.994;22.878;2023-02-24T07:40:29;22.57;;;16.10;;
6566;SDS011;3317;43.994;22.878;2023-02-24T07:42:58;24.50;;;13.27;;
6566;SDS011;3317;43.994;22.878;2023-02-24T07:45:25;20.87;;;11.83;;
6566;SDS011;3317;43.994;22.878;2023-02-24T07:47:53;20.57;;;11.97;;
6566;SDS011;3317;43.994;22.878;2023-02-24T07:50:20;22.80;;;13.60;;
6566;SDS011;3317;43.994;22.878;2023-02-24T07:52:48;16.10;;;10.10;;
6566;SDS011;3317;43.994;22.878;2023-02-24T07:55:17;15.77;;;10.80;;
6566;SDS011;3317;43.994;22.878;2023-02-24T07:57:45;16.60;;;11.00;;
6566;SDS011;3317;43.994;22.878;2023-02-24T08:00:13;20.83;;;13.40;;
6566;SDS011;3317;43.994;22.878;2023-02-24T08:02:45;16.63;;;9.57;;
6566;SDS011;3317;43.994;22.878;2023-02-24T08:05:14;13.73;;;9.20;;
6566;SDS011;3317;43.994;22.878;2023-02-24T08:07:42;17.70;;;10.73;;
6566;SDS011;3317;43.994;22.878;2023-02-24T08:10:14;10.20;;;7.40;;
6566;SDS011;3317;43.994;22.878;2023-02-24T08:12:51;21.27;;;10.73;;
6566;SDS011;3317;43.994;22.878;2023-02-24T08:15:20;17.40;;;9.43;;
6566;SDS011;3317;43.994;22.878;2023-02-24T08:17:49;14.60;;;9.87;;
6566;SDS011;3317;43.994;22.878;2023-02-24T08:20:17;19.87;;;10.90;;
6566;SDS011;3317;43.994;22.878;2023-02-24T08:22:49;22.80;;;11.27;;
6566;SDS011;3317;43.994;22.878;2023-02-24T08:25:18;25.47;;;11.73;;
6566;SDS011;3317;43.994;22.878;2023-02-24T08:27:47;24.57;;;11.00;;
6566;SDS011;3317;43.994;22.878;2023-02-24T08:30:21;22.40;;;10.80;;
6566;SDS011;3317;43.994;22.878;2023-02-24T08:32:50;23.13;;;12.20;;
6566;SDS011;3317;43.994;22.878;2023-02-24T08:35:23;20.30;;;10.23;;
6566;SDS011;3317;43.994;22.878;2023-02-24T08:37:56;20.20;;;10.50;;
6566;SDS011;3317;43.994;22.878;2023-02-24T08:40:26;21.93;;;11.43;;
6566;SDS011;3317;43.994;22.878;2023-02-24T08:43:04;22.90;;;11.03;;
6566;SDS011;3317;43.994;22.878;2023-02-24T08:45:43;18.57;;;10.77;;
6566;SDS011;3317;43.994;22.878;2023-02-24T08:48:15;18.33;;;11.77;;
6566;SDS011;3317;43.994;22.878;2023-02-24T08:50:50;32.10;;;14.30;;
6566;SDS011;3317;43.994;22.878;2023-02-24T08:53:18;27.30;;;15.60;;
6566;SDS011;3317;43.994;22.878;2023-02-24T08:55:46;22.60;;;14.60;;
6566;SDS011;3317;43.994;22.878;2023-02-24T08:58:17;29.33;;;16.50;;
6566;SDS011;3317;43.994;22.878;2023-02-24T09:00:52;28.73;;;16.70;;
6566;SDS011;3317;43.994;22.878;2023-02-24T09:03:22;27.00;;;15.90;;
6566;SDS011;3317;43.994;22.878;2023-02-24T09:05:57;29.13;;;15.87;;
6566;SDS011;3317;43.994;22.878;2023-02-24T09:08:26;31.47;;;16.70;;
6566;SDS011;3317;43.994;22.878;2023-02-24T09:10:57;33.23;;;16.03;;
6566;SDS011;3317;43.994;22.878;2023-02-24T09:13:25;24.70;;;15.10;;
6566;SDS011;3317;43.994;22.878;2023-02-24T09:16:00;23.67;;;13.63;;
6566;SDS011;3317;43.994;22.878;2023-02-24T09:18:28;26.30;;;14.33;;
6566;SDS011;3317;43.994;22.878;2023-02-24T09:21:06;26.50;;;13.40;;
6566;SDS011;3317;43.994;22.878;2023-02-24T09:23:52;25.37;;;14.70;;
6566;SDS011;3317;43.994;22.878;2023-02-24T09:26:20;21.00;;;13.73;;
6566;SDS011;3317;43.994;22.878;2023-02-24T09:28:47;27.97;;;12.60;;
6566;SDS011;3317;43.994;22.878;2023-02-24T09:31:20;25.33;;;12.93;;
6566;SDS011;3317;43.994;22.878;2023-02-24T09:34:04;26.50;;;14.10;;
6566;SDS011;3317;43.994;22.878;2023-02-24T09:36:34;27.83;;;14.50;;
6566;SDS011;3317;43.994;22.878;2023-02-24T09:39:09;18.33;;;11.60;;
6566;SDS011;3317;43.994;22.878;2023-02-24T09:41:39;21.37;;;12.03;;
6566;SDS011;3317;43.994;22.878;2023-02-24T09:44:26;17.10;;;11.30;;
6566;SDS011;3317;43.994;22.878;2023-02-24T09:47:00;27.27;;;14.70;;
6566;SDS011;3317;43.994;22.878;2023-02-24T09:49:39;24.03;;;15.10;;
6566;SDS011;3317;43.994;22.878;2023-02-24T09:52:12;23.10;;;14.00;;
6566;SDS011;3317;43.994;22.878;2023-02-24T09:54:42;24.40;;;15.40;;
6566;SDS011;3317;43.994;22.878;2023-02-24T09:57:41;25.50;;;14.23;;
6566;SDS011;3317;43.994;22.878;2023-02-24T10:00:30;26.43;;;15.13;;
6566;SDS011;3317;43.994;22.878;2023-02-24T10:03:05;22.97;;;14.10;;
6566;SDS011;3317;43.994;22.878;2023-02-24T10:05:46;23.70;;;14.53;;
6566;SDS011;3317;43.994;22.878;2023-02-24T10:08:26;19.10;;;12.03;;
6566;SDS011;3317;43.994;22.878;2023-02-24T10:10:56;23.37;;;12.87;;
6566;SDS011;3317;43.994;22.878;2023-02-24T10:13:33;26.57;;;15.90;;
6566;SDS011;3317;43.994;22.878;2023-02-24T10:16:03;30.10;;;15.50;;
6566;SDS011;3317;43.994;22.878;2023-02-24T10:18:38;25.00;;;14.43;;
6566;SDS011;3317;43.994;22.878;2023-02-24T10:21:11;20.30;;;13.03;;
6566;SDS011;3317;43.994;22.878;2023-02-24T10:23:57;24.50;;;13.87;;
6566;SDS011;3317;43.994;22.878;2023-02-24T10:26:35;22.40;;;12.60;;
6566;SDS011;3317;43.994;22.878;2023-02-24T10:29:14;22.67;;;14.33;;
6566;SDS011;3317;43.994;22.878;2023-02-24T10:31:56;23.33;;;14.73;;
6566;SDS011;3317;43.994;22.878;2023-02-24T10:34:36;22.37;;;12.97;;
6566;SDS011;3317;43.994;22.878;2023-02-24T10:37:10;20.33;;;13.10;;
6566;SDS011;3317;43.994;22.878;2023-02-24T10:39:38;24.77;;;13.80;;
6566;SDS011;3317;43.994;22.878;2023-02-24T10:42:08;17.60;;;13.30;;
6566;SDS011;3317;43.994;22.878;2023-02-24T10:44:42;26.93;;;16.20;;
6566;SDS011;3317;43.994;22.878;2023-02-24T10:47:17;22.90;;;13.27;;
6566;SDS011;3317;43.994;22.878;2023-02-24T10:49:47;21.13;;;12.57;;
6566;SDS011;3317;43.994;22.878;2023-02-24T10:52:25;18.70;;;11.40;;
6566;SDS011;3317;43.994;22.878;2023-02-24T10:55:16;22.17;;;13.67;;
6566;SDS011;3317;43.994;22.878;2023-02-24T10:57:53;23.73;;;14.50;;
6566;SDS011;3317;43.994;22.878;2023-02-24T11:00:37;18.77;;;13.00;;
6566;SDS011;3317;43.994;22.878;2023-02-24T11:03:22;28.23;;;15.30;;
6566;SDS011;3317;43.994;22.878;2023-02-24T11:06:01;23.23;;;15.00;;
6566;SDS011;3317;43.994;22.878;2023-02-24T11:08:55;20.53;;;14.00;;
6566;SDS011;3317;43.994;22.878;2023-02-24T11:11:43;19.80;;;12.30;;
6566;SDS011;3317;43.994;22.878;2023-02-24T11:14:28;19.63;;;11.53;;
6566;SDS011;3317;43.994;22.878;2023-02-24T11:17:17;18.40;;;12.60;;
6566;SDS011;3317;43.994;22.878;2023-02-24T11:19:53;18.47;;;13.43;;
6566;SDS011;3317;43.994;22.878;2023-02-24T11:22:26;29.87;;;16.63;;
6566;SDS011;3317;43.994;22.878;2023-02-24T11:24:57;26.50;;;15.30;;
6566;SDS011;3317;43.994;22.878;2023-02-24T11:27:30;32.07;;;15.37;;
6566;SDS011;3317;43.994;22.878;2023-02-24T11:30:07;29.10;;;17.00;;
6566;SDS011;3317;43.994;22.878;2023-02-24T11:35:40;30.50;;;17.00;;
6566;SDS011;3317;43.994;22.878;2023-02-24T11:38:17;29.97;;;15.70;;
6566;SDS011;3317;43.994;22.878;2023-02-24T11:40:57;29.37;;;15.83;;
6566;SDS011;3317;43.994;22.878;2023-02-24T11:43:30;32.17;;;16.10;;
6566;SDS011;3317;43.994;22.878;2023-02-24T11:46:02;27.83;;;16.03;;
6566;SDS011;3317;43.994;22.878;2023-02-24T11:48:35;24.23;;;12.93;;
6566;SDS011;3317;43.994;22.878;2023-02-24T11:51:04;26.57;;;15.97;;
6566;SDS011;3317;43.994;22.878;2023-02-24T11:53:38;26.30;;;15.50;;
6566;SDS011;3317;43.994;22.878;2023-02-24T11:56:13;24.87;;;16.20;;
6566;SDS011;3317;43.994;22.878;2023-02-24T11:58:47;29.00;;;16.73;;
6566;SDS011;3317;43.994;22.878;2023-02-24T12:01:21;30.63;;;17.67;;
6566;SDS011;3317;43.994;22.878;2023-02-24T12:03:54;30.50;;;18.63;;
6566;SDS011;3317;43.994;22.878;2023-02-24T12:06:29;24.50;;;16.03;;
6566;SDS011;3317;43.994;22.878;2023-02-24T12:09:09;30.40;;;16.47;;
6566;SDS011;3317;43.994;22.878;2023-02-24T12:11:42;23.17;;;14.80;;
6566;SDS011;3317;43.994;22.878;2023-02-24T12:14:15;21.40;;;14.73;;
6566;SDS011;3317;43.994;22.878;2023-02-24T12:16:50;25.20;;;13.77;;
6566;SDS011;3317;43.994;22.878;2023-02-24T12:19:26;19.60;;;12.80;;
6566;SDS011;3317;43.994;22.878;2023-02-24T12:21:58;28.93;;;16.50;;
6566;SDS011;3317;43.994;22.878;2023-02-24T12:24:33;27.60;;;16.00;;
6566;SDS011;3317;43.994;22.878;2023-02-24T12:27:03;27.93;;;16.20;;
6566;SDS011;3317;43.994;22.878;2023-02-24T12:29:49;21.90;;;16.10;;
6566;SDS011;3317;43.994;22.878;2023-02-24T12:32:35;23.97;;;14.60;;
6566;SDS011;3317;43.994;22.878;2023-02-24T12:35:17;29.40;;;16.03;;
6566;SDS011;3317;43.994;22.878;2023-02-24T12:38:03;26.07;;;15.40;;
6566;SDS011;3317;43.994;22.878;2023-02-24T12:40:46;23.73;;;14.47;;
6566;SDS011;3317;43.994;22.878;2023-02-24T12:43:23;24.00;;;14.60;;
6566;SDS011;3317;43.994;22.878;2023-02-24T12:45:59;21.00;;;14.30;;
6566;SDS011;3317;43.994;22.878;2023-02-24T12:48:36;28.33;;;15.33;;
6566;SDS011;3317;43.994;22.878;2023-02-24T12:51:24;26.47;;;16.73;;
6566;SDS011;3317;43.994;22.878;2023-02-24T12:54:00;32.37;;;18.30;;
6566;SDS011;3317;43.994;22.878;2023-02-24T12:56:34;23.80;;;15.90;;
6566;SDS011;3317;43.994;22.878;2023-02-24T12:59:11;26.67;;;16.40;;
6566;SDS011;3317;43.994;22.878;2023-02-24T13:01:44;27.90;;;14.97;;
6566;SDS011;3317;43.994;22.878;2023-02-24T13:04:23;24.67;;;16.17;;
6566;SDS011;3317;43.994;22.878;2023-02-24T13:07:02;22.20;;;14.97;;
6566;SDS011;3317;43.994;22.878;2023-02-24T13:09:37;21.80;;;14.53;;
6566;SDS011;3317;43.994;22.878;2023-02-24T13:12:14;25.43;;;12.70;;
6566;SDS011;3317;43.994;22.878;2023-02-24T13:14:44;28.43;;;16.70;;
6566;SDS011;3317;43.994;22.878;2023-02-24T13:17:17;28.27;;;16.33;;
6566;SDS011;3317;43.994;22.878;2023-02-24T13:19:46;25.17;;;15.43;;
6566;SDS011;3317;43.994;22.878;2023-02-24T13:22:20;21.90;;;14.73;;
6566;SDS011;3317;43.994;22.878;2023-02-24T13:24:58;20.37;;;13.60;;
6566;SDS011;3317;43.994;22.878;2023-02-24T13:27:30;28.33;;;16.47;;
6566;SDS011;3317;43.994;22.878;2023-02-24T13:30:00;30.27;;;15.23;;
6566;SDS011;3317;43.994;22.878;2023-02-24T13:32:30;24.47;;;15.60;;
6566;SDS011;3317;43.994;22.878;2023-02-24T13:34:59;26.70;;;15.50;;
6566;SDS011;3317;43.994;22.878;2023-02-24T13:37:32;19.20;;;12.80;;
6566;SDS011;3317;43.994;22.878;2023-02-24T13:40:20;21.00;;;14.87;;
6566;SDS011;3317;43.994;22.878;2023-02-24T13:42:56;20.60;;;13.30;;
6566;SDS011;3317;43.994;22.878;2023-02-24T13:45:25;25.40;;;14.87;;
6566;SDS011;3317;43.994;22.878;2023-02-24T13:50:53;22.43;;;14.63;;
6566;SDS011;3317;43.994;22.878;2023-02-24T13:53:34;29.00;;;15.67;;
6566;SDS011;3317;43.994;22.878;2023-02-24T13:56:18;21.53;;;14.20;;
6566;SDS011;3317;43.994;22.878;2023-02-24T13:59:02;19.43;;;14.07;;
6566;SDS011;3317;43.994;22.878;2023-02-24T14:01:56;31.23;;;17.03;;
6566;SDS011;3317;43.994;22.878;2023-02-24T14:04:25;25.93;;;13.80;;
6566;SDS011;3317;43.994;22.878;2023-02-24T14:06:54;22.50;;;13.80;;
6566;SDS011;3317;43.994;22.878;2023-02-24T14:09:25;34.23;;;16.17;;
6566;SDS011;3317;43.994;22.878;2023-02-24T14:11:56;21.93;;;13.47;;
6566;SDS011;3317;43.994;22.878;2023-02-24T14:14:27;27.63;;;15.10;;
6566;SDS011;3317;43.994;22.878;2023-02-24T14:16:55;23.70;;;14.60;;
6566;SDS011;3317;43.994;22.878;2023-02-24T14:19:23;23.20;;;15.47;;
6566;SDS011;3317;43.994;22.878;2023-02-24T14:21:52;24.53;;;15.60;;
6566;SDS011;3317;43.994;22.878;2023-02-24T14:24:20;28.17;;;16.07;;
6566;SDS011;3317;43.994;22.878;2023-02-24T14:26:49;22.13;;;15.00;;
6566;SDS011;3317;43.994;22.878;2023-02-24T14:29:18;24.80;;;14.80;;
6566;SDS011;3317;43.994;22.878;2023-02-24T14:31:49;34.33;;;19.17;;
6566;SDS011;3317;43.994;22.878;2023-02-24T14:34:18;30.43;;;17.70;;
6566;SDS011;3317;43.994;22.878;2023-02-24T14:36:47;33.77;;;17.47;;
6566;SDS011;3317;43.994;22.878;2023-02-24T14:39:16;32.23;;;16.63;;
6566;SDS011;3317;43.994;22.878;2023-02-24T14:41:45;22.17;;;14.93;;
6566;SDS011;3317;43.994;22.878;2023-02-24T14:44:17;32.73;;;18.07;;
6566;SDS011;3317;43.994;22.878;2023-02-24T14:46:46;31.67;;;18.90;;
6566;SDS011;3317;43.994;22.878;2023-02-24T14:49:17;24.93;;;17.03;;
6566;SDS011;3317;43.994;22.878;2023-02-24T14:51:46;29.93;;;17.03;;
6566;SDS011;3317;43.994;22.878;2023-02-24T14:54:20;40.00;;;17.13;;
6566;SDS011;3317;43.994;22.878;2023-02-24T14:56:55;28.57;;;16.20;;
6566;SDS011;3317;43.994;22.878;2023-02-24T14:59:26;28.47;;;18.77;;
6566;SDS011;3317;43.994;22.878;2023-02-24T15:01:58;29.90;;;16.40;;
6566;SDS011;3317;43.994;22.878;2023-02-24T15:04:29;32.53;;;17.63;;
6566;SDS011;3317;43.994;22.878;2023-02-24T15:07:01;31.00;;;18.70;;
6566;SDS011;3317;43.994;22.878;2023-02-24T15:09:32;22.33;;;15.77;;
6566;SDS011;3317;43.994;22.878;2023-02-24T15:12:08;30.17;;;17.90;;
6566;SDS011;3317;43.994;22.878;2023-02-24T15:14:38;30.63;;;17.53;;
6566;SDS011;3317;43.994;22.878;2023-02-24T15:17:15;25.33;;;15.97;;
6566;SDS011;3317;43.994;22.878;2023-02-24T15:19:45;40.40;;;19.50;;
6566;SDS011;3317;43.994;22.878;2023-02-24T15:22:19;29.13;;;18.10;;